ABX weather

Albury Airport
Albury, New South Wales, Australia

Public forecast

Using degrees Celsius for public forecast. Weather courtesy of forecast.io.

METAR (pilot weather report)

Retrieved 2017/09/20 22:00 UTC (49 minutes ago):

YMAY 202200Z AUTO 00000KT 9999 // NCD 08/06 Q1018

TAF (pilot weather forecast)

Closest forecast is Wangaratta Airport, 37.8 nm (70.0 km) WSW. Retrieved 2017/09/20 20:03 UTC (3 hours ago):

TAF YWGT 201831Z 2020/2108 VRB05KT CAVOK PROB30 2020/2022 0500 FG